CDT,Max TemperatureF,Mean TemperatureF,Min TemperatureF,Max Dew PointF,MeanDew PointF,Min DewpointF,Max Humidity, Mean Humidity, Min Humidity, Max Sea Level PressureIn, Mean Sea Level PressureIn, Min Sea Level PressureIn, Max VisibilityMiles, Mean VisibilityMiles, Min VisibilityMiles, Max Wind SpeedMPH, Mean Wind SpeedMPH, Max Gust SpeedMPH,PrecipitationIn, CloudCover, Events, WindDirDegrees
2013-6-1,78,64,51,64,56,50,100,81,53,29.72,29.66,29.61,10,8,1,18,5,26,0.17,3,Thunderstorm,139
2013-6-2,59,50,42,54,41,37,94,73,51,30.05,29.92,29.65,10,10,5,26,12,31,0.17,5,,340
2013-6-3,69,54,39,46,42,36,93,66,38,30.11,30.05,30.01,10,10,2,15,4,21,0.00,1,,215
2013-6-4,55,48,44,46,42,39,93,78,58,30.24,30.19,30.11,10,10,5,10,4,,0.06,4,,43
2013-6-5,59,52,46,48,44,39,93,78,59,30.18,30.11,30.02,10,10,9,15,5,,0.06,7,,50
2013-6-6,55,52,48,48,46,41,93,81,63,30.03,29.99,29.96,10,10,5,10,4,,0.36,8,,359
2013-6-7,69,58,48,48,44,39,82,63,33,30.02,29.97,29.94,10,10,9,12,5,,0.00,3,,18
2013-6-8,66,57,48,50,47,43,88,70,55,30.05,30.00,29.94,10,10,7,10,2,,0.00,3,,119
2013-6-9,71,60,48,57,52,45,93,78,60,30.06,29.99,29.89,10,10,7,15,4,21,0.00,2,,90
2013-6-10,69,63,57,61,54,50,94,80,68,29.89,29.84,29.81,10,9,4,8,4,,0.00,3,,69
2013-6-11,69,62,55,61,55,52,94,89,73,29.91,29.88,29.86,10,4,0,10,1,,0.00,0,,253
2013-6-12,,,,,,,,,,,,,,,,,,,,,,
2013-6-13,66,64,64,55,55,55,73,70,68,29.92,29.92,29.92,,,,14,13,18,0.00,,,345
2013-6-14,,,,,,,,,,,,,,,,,,,,,,
2013-6-15,,,,,,,,,,,,,,,,,,,,,,
2013-6-16,,,,,,,,,,,,,,,,,,,,,,
2013-6-17,,,,,,,,,,,,,,,,,,,,,,
2013-6-18,,,,,,,,,,,,,,,,,,,,,,
2013-6-19,,,,,,,,,,,,,,,,,,,,,,
2013-6-20,,,,,,,,,,,,,,,,,,,,,,
2013-6-21,78,71,64,66,64,63,94,81,61,30.07,29.98,29.92,10,10,10,20,10,25,0.12,,Thunderstorm,215
2013-6-22,71,64,57,66,62,57,100,92,78,30.09,30.03,29.95,10,9,2,17,3,23,1.33,,Thunderstorm,95
2013-6-23,80,71,62,70,65,61,100,85,65,30.03,29.92,29.85,10,8,2,20,6,30,0.00,,Thunderstorm,171
2013-6-24,82,72,62,70,66,61,94,80,58,29.99,29.93,29.84,10,10,7,15,6,21,0.00,,,217
2013-6-25,80,73,66,70,67,64,100,83,65,29.91,29.86,29.82,10,10,8,15,5,17,0.04,,Thunderstorm,230
2013-6-26,77,68,60,68,64,61,100,85,69,29.82,29.78,29.73,10,8,2,14,5,18,0.00,,,154
2013-6-27,84,72,62,72,65,61,100,87,65,29.79,29.74,29.67,10,9,3,22,3,36,1.19,,Thunderstorm,269
2013-6-28,77,70,64,64,63,63,94,84,65,29.68,29.64,29.60,10,10,9,13,5,17,0.30,,Thunderstorm,348
2013-6-29,71,66,62,63,59,52,94,78,60,29.85,29.73,29.64,10,10,10,15,9,24,0.00,,,28
2013-6-30,73,66,59,52,49,43,72,55,33,30.06,29.97,29.86,10,10,8,13,8,20,0.00,,,21